Time;durP1;ratioP1;P1;durP2;ratioP2;P2;SDS_P1;SDS_P2;PMS_P1;PMS_P2;Temp;Humidity;BMP_temperature;BMP_pressure;BME280_temperature;BME280_humidity;BME280_pressure;Samples;Min_cycle;Max_cycle;Signal;HPM_P1;HPM_P2
2022/01/17 00:01:13;;;;;;;22.00;9.80;;;4.70;99.90;;;4.62;84.84;102194.72;5091401;28;20293;-65
2022/01/17 00:03:41;;;;;;;27.25;11.23;;;4.70;99.90;;;4.61;85.56;102194.78;5092367;28;20695;-65
2022/01/17 00:06:08;;;;;;;25.58;10.55;;;4.70;99.90;;;4.59;85.19;102196.53;5090854;28;20206;-64
2022/01/17 00:08:40;;;;;;;26.60;12.15;;;4.70;99.90;;;4.67;85.01;102198.06;5076330;28;20688;-62
2022/01/17 00:11:09;;;;;;;16.08;7.60;;;4.70;99.90;;;4.66;85.23;102198.94;5089185;28;20278;-65
2022/01/17 00:13:38;;;;;;;21.17;9.18;;;4.70;99.90;;;4.63;84.88;102196.44;5088413;28;20232;-62
2022/01/17 00:16:11;;;;;;;15.82;7.85;;;4.60;99.90;;;4.71;84.62;102199.69;5091875;28;20207;-66
2022/01/17 00:21:05;;;;;;;16.50;6.90;;;4.60;99.90;;;4.60;84.25;102227.53;5092064;28;20657;-63
2022/01/17 00:23:33;;;;;;;13.45;6.15;;;4.60;99.90;;;4.66;84.61;102240.31;5092010;28;20224;-63
2022/01/17 00:26:00;;;;;;;18.27;6.55;;;4.60;99.90;;;4.61;84.56;102231.81;5090329;28;20211;-64
2022/01/17 00:28:27;;;;;;;14.45;6.43;;;4.60;99.90;;;4.66;84.31;102231.72;5075551;28;20280;-64
2022/01/17 00:30:54;;;;;;;8.95;4.53;;;4.70;99.90;;;4.45;85.78;102229.59;5092742;28;20212;-65
2022/01/17 00:33:21;;;;;;;17.42;7.45;;;4.50;99.90;;;4.36;85.95;102217.72;5090292;28;20214;-63
2022/01/17 00:35:48;;;;;;;9.98;4.97;;;4.40;99.90;;;4.28;86.54;102221.38;5092869;28;20203;-65
2022/01/17 00:38:15;;;;;;;12.05;4.93;;;4.30;99.90;;;4.25;86.64;102222.28;5093270;28;20302;-62
2022/01/17 00:40:43;;;;;;;13.40;5.57;;;4.30;99.90;;;4.38;86.52;102223.72;5092719;28;20284;-62
2022/01/17 00:43:13;;;;;;;24.33;10.27;;;4.30;99.90;;;4.42;86.76;102220.19;5090302;28;20234;-66
2022/01/17 00:45:43;;;;;;;18.58;8.80;;;4.40;99.90;;;4.44;86.98;102220.13;5090143;28;20744;-65
2022/01/17 00:48:11;;;;;;;23.20;10.43;;;4.40;99.90;;;4.45;86.48;102212.34;5090738;28;20196;-65
2022/01/17 00:50:40;;;;;;;15.82;7.53;;;4.40;99.90;;;4.45;86.28;102214.09;5091629;28;20283;-65
2022/01/17 00:53:09;;;;;;;12.50;6.68;;;4.40;99.90;;;4.50;86.06;102202.75;5092031;28;20290;-65
2022/01/17 00:55:37;;;;;;;8.68;4.72;;;4.50;99.90;;;4.53;85.91;102197.53;5092640;28;20237;-62
2022/01/17 00:58:05;;;;;;;15.85;7.10;;;4.50;99.90;;;4.58;85.83;102207.75;5091689;28;20208;-63
2022/01/17 01:00:33;;;;;;;20.77;8.63;;;4.60;99.90;;;4.64;85.70;102210.22;5093207;28;20294;-63
2022/01/17 01:03:01;;;;;;;14.57;7.30;;;4.70;99.90;;;4.62;85.66;102228.34;5086097;28;20213;-65
2022/01/17 01:05:28;;;;;;;7.93;4.82;;;4.60;99.90;;;4.63;85.40;102230.06;5077913;28;20308;-66
2022/01/17 01:07:55;;;;;;;12.10;5.40;;;4.60;99.90;;;4.64;85.37;102234.31;5089047;28;20200;-63
2022/01/17 01:10:23;;;;;;;13.95;5.50;;;4.60;99.90;;;4.65;85.46;102230.00;5091095;28;20279;-64
2022/01/17 01:12:52;;;;;;;14.98;7.65;;;4.70;99.90;;;4.71;85.10;102233.31;5091187;28;20725;-63
2022/01/17 01:15:34;;;;;;;11.70;6.55;;;4.70;99.90;;;4.74;85.00;102222.06;5091229;28;20210;-65
2022/01/17 01:18:12;;;;;;;10.55;5.57;;;4.70;99.90;;;4.70;85.07;102225.59;5092571;28;20196;-63
2022/01/17 01:28:43;;;;;;;13.63;5.88;;;4.40;99.90;;;4.50;86.03;102223.44;5086776;28;20199;-65
2022/01/17 01:31:26;;;;;;;16.05;6.05;;;4.50;99.90;;;4.51;86.21;102234.63;5090961;28;20263;-65
2022/01/17 01:33:55;;;;;;;14.02;5.85;;;4.50;99.90;;;4.51;86.28;102229.47;5089866;28;20204;-63
2022/01/17 01:36:27;;;;;;;14.00;6.25;;;4.50;99.90;;;4.55;86.22;102221.63;5088834;28;20587;-63
2022/01/17 01:38:54;;;;;;;10.35;4.43;;;4.50;99.90;;;4.58;85.84;102213.78;5089115;28;20287;-62
2022/01/17 01:41:22;;;;;;;14.82;5.78;;;4.60;99.90;;;4.55;85.92;102224.22;5090832;28;20231;-62
2022/01/17 01:43:49;;;;;;;12.95;5.20;;;4.50;99.90;;;4.60;85.99;102219.75;5085135;28;20221;-64
2022/01/17 01:46:19;;;;;;;11.68;5.90;;;4.60;99.90;;;4.59;86.04;102218.09;5077057;28;20218;-63
2022/01/17 01:48:47;;;;;;;14.65;7.05;;;4.60;99.90;;;4.64;85.99;102223.16;5090277;28;20257;-62
2022/01/17 01:51:15;;;;;;;16.17;7.20;;;4.60;99.90;;;4.62;86.48;102230.91;5075492;28;20221;-63
2022/01/17 01:53:42;;;;;;;10.80;6.00;;;4.60;99.90;;;4.64;86.21;102238.66;5053270;28;20189;-65
2022/01/17 01:56:09;;;;;;;11.80;6.35;;;4.60;99.90;;;4.67;86.19;102243.75;5079280;28;20675;-66
2022/01/17 01:58:39;;;;;;;7.97;4.93;;;4.60;99.90;;;4.65;86.23;102254.13;5072463;28;20298;-65
2022/01/17 02:01:06;;;;;;;9.90;5.28;;;4.60;99.90;;;4.64;86.28;102255.00;5072583;28;20234;-64
2022/01/17 02:03:33;;;;;;;8.73;5.00;;;4.70;99.90;;;4.59;86.12;102266.34;5072979;28;20231;-66
2022/01/17 02:06:00;;;;;;;9.20;4.70;;;4.60;99.90;;;4.49;86.06;102272.59;5091042;28;20203;-62
2022/01/17 02:08:30;;;;;;;10.75;4.55;;;4.60;99.90;;;4.49;86.50;102270.00;5091444;28;20204;-64
2022/01/17 02:10:58;;;;;;;9.48;5.07;;;4.40;99.90;;;4.53;86.82;102274.22;5089332;28;20251;-63
2022/01/17 02:13:26;;;;;;;9.07;5.38;;;4.50;99.90;;;4.55;86.83;102281.06;5089443;28;20219;-66
2022/01/17 02:16:05;;;;;;;12.50;6.10;;;4.50;99.90;;;4.58;86.79;102268.06;5090143;28;20204;-65
2022/01/17 02:18:32;;;;;;;15.77;7.55;;;4.50;99.90;;;4.61;86.90;102272.34;5085778;28;20201;-64
2022/01/17 02:21:20;;;;;;;6.32;4.20;;;4.60;99.90;;;4.69;86.71;102268.69;5073164;28;20260;-66
2022/01/17 02:23:51;;;;;;;11.57;6.03;;;4.60;99.90;;;4.72;86.26;102271.22;5089749;28;20228;-65
2022/01/17 02:26:20;;;;;;;9.82;5.30;;;4.70;99.90;;;4.76;86.02;102273.72;5088729;28;20215;-63
2022/01/17 02:28:53;;;;;;;12.73;6.07;;;4.70;99.90;;;4.80;86.07;102280.53;5091254;28;20195;-64
2022/01/17 02:31:22;;;;;;;8.32;4.35;;;4.70;99.90;;;4.81;86.26;102277.06;5072777;28;20217;-65
2022/01/17 02:33:51;;;;;;;7.40;4.80;;;4.80;99.90;;;4.82;85.35;102271.00;5087086;28;20238;-65
2022/01/17 02:36:18;;;;;;;9.25;4.72;;;4.80;99.90;;;4.83;85.19;102273.56;5089388;28;20200;-64
2022/01/17 02:38:45;;;;;;;8.85;4.63;;;4.80;99.90;;;4.83;85.73;102272.72;5078686;28;20189;-65
2022/01/17 02:41:12;;;;;;;14.50;6.75;;;4.80;99.90;;;4.77;85.51;102258.16;5070079;28;20228;-65
2022/01/17 02:43:40;;;;;;;8.57;4.10;;;4.70;99.90;;;4.72;85.83;102253.13;5070091;28;20264;-63
2022/01/17 02:48:39;;;;;;;12.15;6.63;;;4.80;99.90;;;4.66;85.73;102239.47;5089019;28;20291;-65
2022/01/17 02:51:11;;;;;;;9.20;4.93;;;4.70;99.90;;;4.75;85.53;102243.59;5088354;28;20684;-64
2022/01/17 02:53:40;;;;;;;3.88;2.28;;;4.70;99.90;;;4.71;85.86;102233.31;5088447;28;20697;-65
2022/01/17 02:56:09;;;;;;;10.00;5.97;;;4.70;99.90;;;4.69;85.96;102226.47;5088314;28;20204;-66
2022/01/17 02:58:37;;;;;;;7.47;4.05;;;4.70;99.90;;;4.78;85.99;102217.66;5088302;28;20210;-63
2022/01/17 03:01:20;;;;;;;10.10;4.40;;;4.70;99.90;;;4.67;86.23;102210.13;5089925;28;20220;-65
2022/01/17 03:03:48;;;;;;;11.00;5.88;;;4.70;99.90;;;4.63;86.09;102209.38;5089255;28;20224;-64
2022/01/17 03:06:16;;;;;;;12.55;6.85;;;4.70;99.90;;;4.68;86.35;102212.69;5088873;28;20742;-65
2022/01/17 03:08:45;;;;;;;7.60;4.57;;;4.60;99.90;;;4.60;86.87;102216.31;5091246;28;20204;-64
2022/01/17 03:11:18;;;;;;;10.23;5.65;;;4.60;99.90;;;4.71;86.03;102222.97;5091237;28;20698;-66
2022/01/17 03:13:47;;;;;;;9.77;5.63;;;4.70;99.90;;;4.70;86.03;102236.78;5093118;28;20208;-66
2022/01/17 03:16:19;;;;;;;7.90;4.43;;;4.70;99.90;;;4.72;85.99;102232.44;5091723;28;20199;-63
2022/01/17 03:18:52;;;;;;;6.90;4.05;;;4.70;99.90;;;4.73;86.29;102239.28;5076939;28;20275;-64
2022/01/17 03:21:20;;;;;;;9.05;4.35;;;4.70;99.90;;;4.78;85.51;102238.34;5091738;28;20302;-63
2022/01/17 03:23:50;;;;;;;8.85;5.30;;;4.80;99.90;;;4.71;85.92;102230.72;5091890;28;20254;-66
2022/01/17 03:26:17;;;;;;;8.20;4.25;;;4.70;99.90;;;4.76;85.79;102225.44;5092065;28;20199;-63
2022/01/17 03:28:44;;;;;;;9.18;5.00;;;4.70;99.90;;;4.79;85.19;102232.28;5093634;28;20200;-64
2022/01/17 03:31:11;;;;;;;10.23;4.75;;;4.80;99.90;;;4.81;85.98;102235.69;5093370;28;20216;-63
2022/01/17 03:33:40;;;;;;;12.68;5.47;;;4.80;99.90;;;4.78;85.82;102234.03;5092137;28;20242;-63
2022/01/17 03:36:07;;;;;;;8.18;4.25;;;4.80;99.90;;;4.70;85.64;102238.53;5093966;28;20354;-66
2022/01/17 03:38:35;;;;;;;15.93;6.85;;;4.70;99.90;;;4.77;85.29;102215.97;5092612;28;20212;-64
2022/01/17 03:41:04;;;;;;;9.50;5.90;;;4.80;99.90;;;4.74;85.06;102214.28;5092213;28;20230;-63
2022/01/17 03:43:32;;;;;;;12.05;6.85;;;4.80;99.90;;;4.72;85.73;102224.69;5091809;28;20232;-66
2022/01/17 03:46:00;;;;;;;10.75;5.88;;;4.70;99.90;;;4.71;85.62;102229.88;5092029;28;20235;-66
2022/01/17 03:48:29;;;;;;;12.02;5.75;;;4.70;99.90;;;4.77;85.98;102218.56;5092843;28;20257;-65
2022/01/17 03:50:58;;;;;;;14.45;7.35;;;4.80;99.90;;;4.79;85.68;102214.19;5091618;28;20216;-66
2022/01/17 03:53:27;;;;;;;12.88;6.70;;;4.80;99.90;;;4.81;85.34;102204.66;5090213;28;20211;-67
2022/01/17 03:55:55;;;;;;;12.93;7.50;;;4.80;99.90;;;4.79;85.21;102199.53;5091051;28;20195;-66
2022/01/17 03:58:26;;;;;;;12.55;6.53;;;4.80;99.90;;;4.75;85.71;102197.06;5091893;28;20192;-65
2022/01/17 04:00:58;;;;;;;10.65;6.43;;;4.80;99.90;;;4.76;85.67;102198.72;5092121;28;20224;-66
2022/01/17 04:03:26;;;;;;;10.05;4.95;;;4.70;99.90;;;4.75;85.97;102207.41;5090790;28;20667;-65
2022/01/17 04:05:53;;;;;;;5.40;4.20;;;4.70;99.90;;;4.77;85.55;102211.63;5068889;28;20200;-63
2022/01/17 04:08:20;;;;;;;9.10;4.97;;;4.80;99.90;;;4.76;85.85;102219.41;5092284;28;20591;-64
2022/01/17 04:10:47;;;;;;;7.45;4.35;;;4.70;99.90;;;4.72;85.94;102232.44;5070376;28;20216;-65
2022/01/17 04:13:14;;;;;;;11.10;4.72;;;4.70;99.90;;;4.76;85.75;102219.41;5083166;28;20571;-66
2022/01/17 04:15:42;;;;;;;9.05;5.65;;;4.80;99.90;;;4.77;85.98;102221.97;5092932;28;20200;-64
2022/01/17 04:18:10;;;;;;;6.43;4.47;;;4.80;99.90;;;4.75;86.02;102239.25;5085137;28;20196;-64
2022/01/17 04:20:41;;;;;;;7.28;4.50;;;4.70;99.90;;;4.78;85.98;102235.75;5091966;28;20300;-65
2022/01/17 04:23:10;;;;;;;10.10;5.10;;;4.70;99.90;;;4.67;86.13;102228.25;5091653;28;20203;-66
2022/01/17 04:25:40;;;;;;;14.45;6.60;;;4.70;99.90;;;4.75;85.77;102222.91;5090858;28;20374;-65
2022/01/17 04:28:08;;;;;;;11.57;6.47;;;4.80;99.90;;;4.71;85.76;102220.38;5089932;28;20224;-66
2022/01/17 04:30:36;;;;;;;11.38;6.00;;;4.70;99.90;;;4.63;86.26;102208.50;5090049;28;20204;-64
2022/01/17 04:33:05;;;;;;;7.85;4.95;;;4.60;99.90;;;4.64;86.21;102211.06;5091725;28;20214;-66
2022/01/17 04:35:34;;;;;;;9.35;5.95;;;4.60;99.90;;;4.65;86.11;102217.09;5090026;28;20208;-64
2022/01/17 04:38:07;;;;;;;11.77;5.40;;;4.60;99.90;;;4.61;86.26;102216.31;5088237;28;20231;-66
2022/01/17 04:40:37;;;;;;;12.88;6.32;;;4.60;99.90;;;4.58;86.74;102228.44;5086223;28;20200;-66
2022/01/17 04:43:16;;;;;;;12.32;5.50;;;4.50;99.90;;;4.52;86.94;102233.75;5071818;28;20291;-65
2022/01/17 04:45:44;;;;;;;11.05;5.65;;;4.50;99.90;;;4.58;86.59;102241.34;5071225;28;20223;-64
2022/01/17 04:48:12;;;;;;;7.93;5.13;;;4.50;99.90;;;4.55;86.78;102252.66;5071883;28;20255;-66
2022/01/17 04:50:39;;;;;;;7.57;4.55;;;4.50;99.90;;;4.59;86.82;102240.50;5071322;28;20196;-64
2022/01/17 04:53:07;;;;;;;11.20;5.70;;;4.50;99.90;;;4.53;86.74;102249.25;5069858;28;20216;-64
2022/01/17 04:55:36;;;;;;;6.28;4.47;;;4.50;99.90;;;4.59;86.98;102249.09;5070650;28;20275;-65
2022/01/17 04:58:04;;;;;;;7.40;4.32;;;4.50;99.90;;;4.60;86.92;102245.63;5071617;28;20342;-67
2022/01/17 05:00:31;;;;;;;12.50;6.05;;;4.60;99.90;;;4.63;86.19;102247.28;5092250;28;20861;-64
2022/01/17 05:02:58;;;;;;;8.57;4.57;;;4.60;99.90;;;4.66;86.44;102242.06;5090632;28;20242;-65
2022/01/17 05:05:25;;;;;;;8.60;5.25;;;4.60;99.90;;;4.66;85.80;102248.06;5087482;28;20256;-63
2022/01/17 05:07:52;;;;;;;13.70;6.05;;;4.70;99.90;;;4.66;86.24;102252.41;5079497;28;20200;-66
2022/01/17 05:10:21;;;;;;;12.10;5.80;;;4.60;99.90;;;4.68;86.32;102245.47;5074802;28;20574;-64
2022/01/17 05:12:49;;;;;;;9.88;4.70;;;4.60;99.90;;;4.65;86.30;102245.53;5054592;28;20267;-64
2022/01/17 05:20:24;;;;;;;8.95;4.78;;;4.70;99.90;;;4.71;85.72;102242.78;5090005;28;20208;-64
2022/01/17 05:22:51;;;;;;;9.32;5.20;;;4.70;99.90;;;4.70;85.86;102235.94;5089942;28;20699;-63
2022/01/17 05:25:18;;;;;;;6.35;4.22;;;4.70;99.90;;;4.72;84.76;102229.00;5090936;28;20246;-64
2022/01/17 05:27:46;;;;;;;9.68;5.05;;;4.70;99.90;;;4.65;85.73;102222.25;5091141;28;20208;-63
2022/01/17 05:30:16;;;;;;;8.93;5.05;;;4.70;99.90;;;4.68;85.74;102238.53;5073721;28;20198;-63
2022/01/17 05:32:44;;;;;;;8.90;5.05;;;4.70;99.90;;;4.68;85.96;102238.53;5090740;28;20226;-63
2022/01/17 05:35:12;;;;;;;6.30;4.50;;;4.70;99.90;;;4.72;85.58;102235.03;5069576;28;20236;-63
2022/01/17 05:37:40;;;;;;;8.50;4.20;;;4.70;99.90;;;4.73;85.67;102241.88;5085663;28;20224;-64
2022/01/17 05:40:10;;;;;;;8.57;3.88;;;4.70;99.90;;;4.76;85.23;102255.63;5082664;28;20200;-65
2022/01/17 05:42:38;;;;;;;5.70;3.78;;;4.80;99.90;;;4.80;84.57;102247.78;5091228;28;20224;-64
2022/01/17 05:45:06;;;;;;;8.90;4.28;;;4.80;99.90;;;4.79;84.53;102263.31;5090072;28;20226;-64
2022/01/17 05:47:33;;;;;;;6.60;4.38;;;4.80;99.90;;;4.76;84.77;102269.41;5090057;28;20389;-64
2022/01/17 05:50:03;;;;;;;7.13;3.50;;;4.80;99.90;;;4.79;84.70;102265.91;5088866;28;20857;-63
2022/01/17 05:52:31;;;;;;;7.00;3.55;;;4.80;99.90;;;4.77;84.73;102262.50;5090309;28;20226;-65
2022/01/17 05:54:59;;;;;;;8.80;3.60;;;4.80;99.90;;;4.77;84.45;102268.50;5079396;28;20206;-63
2022/01/17 05:57:26;;;;;;;6.68;2.95;;;4.80;99.90;;;4.71;84.87;102272.09;5089725;28;20198;-64
2022/01/17 05:59:53;;;;;;;3.03;2.78;;;4.70;99.90;;;4.63;85.01;102265.38;5089684;28;20212;-64
2022/01/17 06:02:20;;;;;;;5.82;2.58;;;4.60;99.90;;;4.54;85.48;102250.94;5105138;28;20604;-64
2022/01/17 06:04:48;;;;;;;6.43;3.55;;;4.60;99.90;;;4.56;85.56;102249.16;5091082;28;20307;-64
2022/01/17 06:07:16;;;;;;;8.85;3.88;;;4.50;99.90;;;4.54;85.83;102261.28;5103020;28;20200;-63
2022/01/17 06:09:43;;;;;;;10.30;5.60;;;4.50;99.90;;;4.51;85.91;102263.94;5056177;28;20219;-64
2022/01/17 06:12:11;;;;;;;6.20;4.40;;;4.50;99.90;;;4.54;86.09;102273.34;5080404;28;20224;-65
2022/01/17 06:14:39;;;;;;;9.82;5.22;;;4.50;99.90;;;4.54;85.96;102288.84;5088353;28;20204;-64
2022/01/17 06:17:06;;;;;;;8.07;4.00;;;4.50;99.90;;;4.57;86.34;102281.91;5084303;28;20318;-64
2022/01/17 06:19:34;;;;;;;7.00;4.20;;;4.50;99.90;;;4.61;85.98;102287.84;5072276;28;20200;-63
2022/01/17 06:22:01;;;;;;;9.40;4.40;;;4.50;99.90;;;4.62;85.63;102286.97;5071112;28;20235;-64
2022/01/17 06:24:28;;;;;;;6.57;4.05;;;4.60;99.90;;;4.65;86.16;102286.88;5091325;28;20310;-63
2022/01/17 06:26:54;;;;;;;6.75;3.88;;;4.60;99.90;;;4.70;85.59;102290.25;5088876;28;20192;-64
2022/01/17 06:29:22;;;;;;;6.82;4.07;;;4.70;99.90;;;4.65;85.64;102295.50;5089420;28;20206;-65
2022/01/17 06:31:48;;;;;;;5.43;4.22;;;4.60;99.90;;;4.70;85.42;102273.00;5072270;28;20226;-64
2022/01/17 06:34:16;;;;;;;11.60;6.05;;;4.70;99.90;;;4.75;85.10;102257.34;5090869;28;20279;-63
2022/01/17 06:36:43;;;;;;;11.80;5.20;;;4.70;99.90;;;4.62;85.76;102277.47;5089559;28;20196;-63
2022/01/17 06:39:13;;;;;;;8.30;4.60;;;4.60;99.90;;;4.57;86.24;102281.91;5088701;28;20588;-64
2022/01/17 06:41:40;;;;;;;15.10;6.38;;;4.50;99.90;;;4.59;86.57;102267.19;5088833;28;20220;-63
2022/01/17 06:44:07;;;;;;;8.82;5.30;;;4.60;99.90;;;4.56;86.34;102290.53;5093527;28;20196;-64
2022/01/17 06:46:34;;;;;;;8.02;4.75;;;4.60;99.90;;;4.56;86.54;102276.75;5092768;28;20655;-64
2022/01/17 06:49:01;;;;;;;10.73;5.53;;;4.50;99.90;;;4.58;86.60;102280.13;5089832;28;20197;-64
2022/01/17 06:51:28;;;;;;;8.60;3.95;;;4.50;99.90;;;4.61;86.17;102283.53;5074855;28;20704;-64
2022/01/17 06:53:55;;;;;;;7.00;4.00;;;4.60;99.90;;;4.61;86.16;102262.00;5088005;28;20197;-65
2022/01/17 06:56:22;;;;;;;6.30;3.85;;;4.60;99.90;;;4.59;86.52;102264.63;5085844;28;20560;-64
2022/01/17 06:58:49;;;;;;;7.47;3.83;;;4.60;99.90;;;4.57;86.48;102274.13;5093502;28;20283;-65
2022/01/17 07:01:20;;;;;;;9.73;4.97;;;4.50;99.90;;;4.60;86.53;102279.22;5075721;28;20402;-64
2022/01/17 07:03:50;;;;;;;12.63;6.00;;;4.50;99.90;;;4.60;86.46;102299.91;5092932;28;20208;-63
2022/01/17 07:06:18;;;;;;;7.95;4.50;;;4.60;99.90;;;4.71;86.45;102304.84;5079700;28;20311;-64
2022/01/17 07:08:46;;;;;;;7.97;4.70;;;4.70;99.90;;;4.69;85.88;102325.59;5072067;28;20785;-64
2022/01/17 07:11:13;;;;;;;5.32;3.33;;;4.70;99.90;;;4.80;85.67;102340.00;5088049;28;20243;-63
2022/01/17 07:13:40;;;;;;;8.23;3.75;;;4.80;99.90;;;4.73;86.14;102352.22;5080672;28;20675;-63
2022/01/17 07:16:08;;;;;;;8.70;4.22;;;4.70;99.90;;;4.72;86.23;102364.31;5071421;28;20642;-63
2022/01/17 07:18:35;;;;;;;6.10;3.28;;;4.70;99.90;;;4.74;86.00;102369.44;5082665;28;20200;-64
2022/01/17 07:21:02;;;;;;;5.85;3.85;;;4.70;99.90;;;4.80;85.69;102365.88;5083800;28;20215;-65
2022/01/17 07:23:29;;;;;;;7.30;4.07;;;4.80;99.90;;;4.81;85.94;102377.94;5072403;28;20668;-63
2022/01/17 07:25:56;;;;;;;4.05;3.13;;;4.80;99.90;;;4.76;85.92;102382.34;5072344;28;20323;-64
2022/01/17 07:28:27;;;;;;;7.47;4.32;;;4.80;99.90;;;4.78;85.80;102365.91;5091708;28;20215;-65
2022/01/17 07:30:55;;;;;;;7.70;4.55;;;4.70;99.90;;;4.63;86.55;102354.16;5084790;28;20221;-63
2022/01/17 07:33:24;;;;;;;11.07;5.13;;;4.60;99.90;;;4.62;86.41;102352.44;5093713;28;20188;-64
2022/01/17 07:35:51;;;;;;;8.02;3.67;;;4.60;99.90;;;4.63;86.75;102348.13;5070829;28;20236;-63
2022/01/17 07:38:18;;;;;;;9.05;3.97;;;4.60;99.90;;;4.65;86.71;102347.22;5093141;28;20762;-65
2022/01/17 07:40:44;;;;;;;7.13;4.10;;;4.60;99.90;;;4.61;87.02;102350.75;5091170;28;20711;-64
2022/01/17 07:43:12;;;;;;;13.98;4.70;;;4.60;99.90;;;4.65;86.74;102343.78;5092401;28;20238;-65
2022/01/17 07:45:46;;;;;;;11.45;5.35;;;4.70;99.90;;;4.62;86.91;102352.44;5089743;28;20530;-65
2022/01/17 07:48:45;;;;;;;9.05;5.00;;;4.60;99.90;;;4.59;87.42;102372.34;5085823;28;20192;-64
2022/01/17 07:51:10;;;;;;;7.75;3.25;;;4.50;99.90;;;4.63;87.74;102376.56;5091025;28;20212;-64
2022/01/17 07:53:38;;;;;;;3.88;3.45;;;4.60;99.90;;;4.64;87.12;102373.94;5090818;28;20226;-63
2022/01/17 07:56:05;;;;;;;8.65;4.75;;;4.60;99.90;;;4.69;87.04;102379.88;5070839;28;20210;-64
2022/01/17 07:58:32;;;;;;;11.63;5.40;;;4.70;99.90;;;4.71;86.65;102383.28;5089984;28;20210;-65
2022/01/17 08:00:59;;;;;;;9.13;4.85;;;4.70;99.90;;;4.73;86.45;102376.34;5090699;28;20223;-64
2022/01/17 08:03:27;;;;;;;7.07;4.22;;;4.70;99.90;;;4.77;86.01;102365.97;5089449;28;20196;-64
2022/01/17 08:05:54;;;;;;;8.00;4.60;;;4.70;99.90;;;4.68;85.77;102373.00;5092748;28;20252;-64
2022/01/17 08:08:21;;;;;;;7.93;4.05;;;4.70;99.90;;;4.73;85.53;102372.91;5087566;28;20286;-65
2022/01/17 08:10:48;;;;;;;5.78;3.60;;;4.80;99.90;;;4.65;85.71;102379.97;5090346;28;20230;-63
2022/01/17 08:13:15;;;;;;;4.78;2.03;;;4.70;99.90;;;4.65;85.52;102383.41;5089259;28;20202;-64
2022/01/17 08:15:44;;;;;;;5.40;3.03;;;4.70;99.90;;;4.63;86.70;102389.50;5085452;28;20283;-64
2022/01/17 08:18:12;;;;;;;5.35;3.80;;;4.60;99.90;;;4.58;86.61;102387.00;5086038;28;20210;-63
2022/01/17 08:20:40;;;;;;;5.93;3.38;;;4.50;99.90;;;4.59;86.70;102400.78;5091977;28;20207;-62
2022/01/17 08:23:08;;;;;;;7.70;3.65;;;4.60;99.90;;;4.55;87.17;102400.00;5092418;28;20204;-64
2022/01/17 08:25:37;;;;;;;4.70;3.63;;;4.50;99.90;;;4.56;87.31;102401.69;5087382;28;20309;-63
2022/01/17 08:28:04;;;;;;;8.85;5.20;;;4.50;99.90;;;4.65;87.12;102398.06;5070925;28;20231;-62
2022/01/17 08:30:32;;;;;;;7.97;5.43;;;4.60;99.90;;;4.65;87.02;102396.34;5094094;28;20350;-62
2022/01/17 08:33:19;;;;;;;7.05;4.30;;;4.60;99.90;;;4.62;87.06;102377.47;5083916;28;20688;-64
2022/01/17 08:35:46;;;;;;;10.52;6.30;;;4.60;99.90;;;4.68;86.93;102385.09;5092278;28;20698;-63
2022/01/17 08:38:28;;;;;;;12.90;6.10;;;4.70;99.90;;;4.72;87.10;102390.19;5092124;28;20200;-61
2022/01/17 08:40:57;;;;;;;7.10;3.92;;;4.70;99.90;;;4.67;86.70;102402.34;5091785;28;20395;-62
2022/01/17 08:43:25;;;;;;;7.45;4.32;;;4.70;99.90;;;4.73;86.49;102393.59;5091724;28;20702;-62
2022/01/17 08:45:53;;;;;;;10.52;4.35;;;4.70;99.90;;;4.70;87.04;102383.31;5087649;28;20228;-64
2022/01/17 08:48:20;;;;;;;10.50;6.25;;;4.60;99.90;;;4.68;87.08;102383.34;5088511;28;20200;-62
2022/01/17 08:50:48;;;;;;;10.63;5.30;;;4.70;99.90;;;4.67;87.22;102384.25;5057241;28;20242;-62
2022/01/17 08:53:16;;;;;;;5.05;4.28;;;4.60;99.90;;;4.75;87.15;102391.00;5073033;28;20205;-64
2022/01/17 08:55:46;;;;;;;13.30;5.88;;;4.70;99.90;;;4.84;87.07;102383.03;5084279;28;20219;-63
2022/01/17 08:58:14;;;;;;;11.70;6.07;;;4.80;99.90;;;4.93;86.72;102375.94;5090487;28;20208;-62
2022/01/17 09:00:41;;;;;;;9.98;5.05;;;5.00;99.90;;;5.10;85.59;102383.34;5085082;28;20291;-63
2022/01/17 09:03:21;;;;;;;10.35;4.70;;;5.30;99.90;;;5.19;84.73;102380.56;5085563;28;20204;-61
2022/01/17 09:05:48;;;;;;;6.13;3.15;;;5.40;99.90;;;5.20;84.46;102377.06;5086978;28;20238;-61
2022/01/17 09:08:16;;;;;;;7.47;4.90;;;5.30;99.90;;;5.36;83.99;102399.16;5089992;28;20199;-65
2022/01/17 09:10:45;;;;;;;8.75;4.20;;;5.40;99.90;;;5.26;84.41;102397.66;5072062;28;20708;-61
2022/01/17 09:13:12;;;;;;;8.98;4.57;;;5.40;99.90;;;5.31;84.34;102408.75;5091848;28;20227;-63
2022/01/17 09:15:39;;;;;;;7.38;4.50;;;5.40;99.90;;;5.34;84.13;102413.88;5089969;28;20659;-65
2022/01/17 09:18:07;;;;;;;9.95;5.45;;;5.40;99.90;;;5.38;84.34;102411.19;5090711;28;20213;-64
2022/01/17 09:20:35;;;;;;;11.30;5.65;;;5.40;99.90;;;5.42;84.51;102415.41;5089911;28;20211;-64
2022/01/17 09:23:04;;;;;;;7.85;3.83;;;5.40;99.90;;;5.45;84.44;102402.38;5091357;28;20512;-61
2022/01/17 09:25:31;;;;;;;4.53;3.20;;;5.50;99.90;;;5.49;83.97;102400.59;5090513;28;20255;-66
2022/01/17 09:27:59;;;;;;;6.87;3.30;;;5.50;99.90;;;5.49;84.11;102392.81;5090540;28;21057;-65
2022/01/17 09:30:26;;;;;;;7.72;3.70;;;5.60;99.90;;;5.49;84.32;102398.00;5089094;28;20744;-63
2022/01/17 09:32:53;;;;;;;4.47;3.13;;;5.50;99.90;;;5.59;83.44;102408.97;5089362;28;20200;-63
2022/01/17 09:35:20;;;;;;;1.75;0.90;;;5.70;99.90;;;5.58;82.81;102413.28;5079690;28;20630;-65
2022/01/17 09:37:49;;;;;;;5.17;3.57;;;5.70;99.90;;;5.64;83.01;102420.09;5088833;28;20302;-63
2022/01/17 09:40:19;;;;;;;10.38;4.50;;;5.70;99.90;;;5.68;82.63;102432.94;5090522;28;20618;-63
2022/01/17 09:42:47;;;;;;;7.35;4.18;;;5.70;99.90;;;5.74;83.25;102445.75;5089760;28;20222;-64
2022/01/17 09:45:18;;;;;;;9.88;4.10;;;5.70;99.90;;;5.69;82.85;102444.97;5090254;28;20250;-65
2022/01/17 09:47:46;;;;;;;4.50;2.67;;;5.70;99.90;;;5.74;82.49;102453.50;5089890;28;20208;-65
2022/01/17 09:50:20;;;;;;;9.60;5.55;;;5.80;99.90;;;5.79;82.42;102474.13;5089112;28;20206;-65
2022/01/17 09:52:51;;;;;;;7.47;4.10;;;5.80;99.90;;;5.83;81.55;102468.84;5088647;28;20786;-63
2022/01/17 09:55:28;;;;;;;8.57;3.50;;;5.90;99.90;;;5.81;82.02;102472.34;5090714;28;20199;-63
2022/01/17 09:58:09;;;;;;;9.27;4.97;;;5.80;99.90;;;5.80;82.85;102474.09;5090561;28;20202;-64
2022/01/17 10:00:42;;;;;;;9.97;5.10;;;5.80;99.90;;;5.76;83.19;102446.56;5090514;28;20555;-62
2022/01/17 10:03:17;;;;;;;8.97;4.83;;;5.80;99.90;;;5.90;82.52;102470.41;5089921;28;20626;-62
2022/01/17 10:05:44;;;;;;;4.73;3.47;;;5.90;99.90;;;5.80;82.72;102486.19;5090093;28;20657;-62
2022/01/17 10:08:15;;;;;;;5.20;3.83;;;5.90;99.90;;;5.84;82.42;102460.19;5090766;28;20636;-62
2022/01/17 10:10:57;;;;;;;7.07;4.43;;;5.90;99.90;;;5.98;82.17;102465.94;5054914;28;21085;-63
2022/01/17 10:13:38;;;;;;;6.72;4.40;;;6.00;99.90;;;6.00;81.70;102468.47;5082817;28;20682;-64
2022/01/17 10:16:11;;;;;;;5.77;3.80;;;6.10;99.90;;;6.11;81.60;102463.88;5089504;28;20279;-63
2022/01/17 10:18:40;;;;;;;3.42;2.33;;;6.20;99.90;;;6.05;81.40;102470.06;5095403;28;20653;-63
2022/01/17 10:21:15;;;;;;;5.47;3.83;;;6.10;99.90;;;6.16;81.20;102462.03;5093639;28;20607;-65
2022/01/17 10:37:23;;;;;;;11.25;5.28;;;6.30;99.90;;;6.32;81.19;102432.25;5091495;28;21037;-62
2022/01/17 10:39:59;;;;;;;9.57;4.70;;;6.40;99.90;;;6.28;80.91;102445.31;5091965;28;20235;-62
2022/01/17 10:42:35;;;;;;;4.45;3.20;;;6.30;99.90;;;6.33;80.55;102444.28;5088603;28;20729;-63
2022/01/17 10:45:18;;;;;;;5.50;4.10;;;6.40;99.90;;;6.44;80.75;102460.44;5090729;28;20287;-61
2022/01/17 10:47:47;;;;;;;5.57;2.63;;;6.50;99.90;;;6.34;79.45;102460.72;5093360;28;20613;-61
2022/01/17 10:50:27;;;;;;;5.93;4.00;;;6.60;99.90;;;6.46;80.54;102465.56;5093301;28;20653;-64
2022/01/17 10:53:07;;;;;;;9.93;5.30;;;6.50;99.90;;;6.45;80.14;102471.66;5093014;28;21283;-63
2022/01/17 10:55:38;;;;;;;8.77;4.93;;;6.50;99.90;;;6.52;80.46;102487.00;5093680;28;20612;-65
2022/01/17 10:58:37;;;;;;;8.07;4.40;;;6.60;99.90;;;6.55;79.40;102486.09;5093272;28;20622;-65
2022/01/17 11:01:10;;;;;;;8.80;5.33;;;6.60;99.90;;;6.50;80.31;102482.75;5093643;28;20749;-64
2022/01/17 11:03:39;;;;;;;9.30;5.17;;;6.60;99.90;;;6.53;80.05;102477.50;5082204;28;20619;-62